createdAt,value
2022-09-11T00:00:52.658Z,14
2022-09-11T00:01:52.693Z,14
2022-09-11T00:02:52.643Z,15
2022-09-11T00:03:52.636Z,14
2022-09-11T00:04:52.640Z,15
2022-09-11T00:05:52.637Z,14
2022-09-11T00:06:52.616Z,15
2022-09-11T00:07:52.678Z,14
2022-09-11T00:08:52.625Z,15
2022-09-11T00:09:52.648Z,14
2022-09-11T00:10:52.634Z,15
2022-09-11T00:11:52.666Z,15
2022-09-11T00:12:52.626Z,15
2022-09-11T00:13:52.621Z,14
2022-09-11T00:14:52.647Z,15
2022-09-11T00:15:52.687Z,15
2022-09-11T00:16:52.641Z,14
2022-09-11T00:17:52.639Z,14
2022-09-11T00:18:52.638Z,14
2022-09-11T00:19:52.702Z,14
2022-09-11T00:20:52.640Z,14
2022-09-11T00:21:52.622Z,14
2022-09-11T00:22:52.634Z,14
2022-09-11T00:23:52.624Z,13
2022-09-11T00:24:52.647Z,14
2022-09-11T00:25:52.633Z,14
2022-09-11T00:26:52.631Z,14
2022-09-11T00:27:52.644Z,14
2022-09-11T00:28:52.630Z,13
2022-09-11T00:29:52.658Z,15
2022-09-11T00:30:52.651Z,15
2022-09-11T00:31:52.649Z,14
2022-09-11T00:32:52.640Z,15
2022-09-11T00:33:52.625Z,15
2022-09-11T00:34:52.643Z,14
2022-09-11T00:35:52.629Z,14
2022-09-11T00:36:52.629Z,14
2022-09-11T00:37:52.618Z,15
2022-09-11T00:38:52.627Z,15
2022-09-11T00:39:52.700Z,14
2022-09-11T00:40:52.635Z,14
2022-09-11T00:41:52.657Z,15
2022-09-11T00:42:58.875Z,16
2022-09-11T00:43:52.659Z,14
2022-09-11T00:44:52.723Z,15
2022-09-11T00:45:52.804Z,14
2022-09-11T00:46:52.985Z,14
2022-09-11T00:47:52.772Z,15
2022-09-11T00:48:52.775Z,15
2022-09-11T00:49:52.654Z,15
2022-09-11T00:50:52.643Z,15
2022-09-11T00:51:52.632Z,16
2022-09-11T00:52:53.303Z,15
2022-09-11T00:53:52.640Z,15
2022-09-11T00:54:52.652Z,14
2022-09-11T00:55:52.630Z,15
2022-09-11T00:56:52.628Z,15
2022-09-11T00:57:52.637Z,14
2022-09-11T00:58:52.630Z,15
2022-09-11T00:59:52.650Z,14
2022-09-11T01:00:52.679Z,15
2022-09-11T01:01:52.680Z,15
2022-09-11T01:02:52.678Z,15
2022-09-11T01:03:52.644Z,14
2022-09-11T01:04:52.648Z,15
2022-09-11T01:05:52.651Z,15
2022-09-11T01:06:52.629Z,15
2022-09-11T01:07:52.634Z,14
2022-09-11T01:08:52.653Z,15
2022-09-11T01:09:52.660Z,15
2022-09-11T01:10:52.647Z,15
2022-09-11T01:11:52.626Z,16
2022-09-11T01:12:52.646Z,17
2022-09-11T01:13:52.652Z,17
2022-09-11T01:14:52.667Z,16
2022-09-11T01:15:52.630Z,17
2022-09-11T01:16:52.648Z,17
2022-09-11T01:17:52.653Z,16
2022-09-11T01:18:52.651Z,16
2022-09-11T01:19:52.648Z,17
2022-09-11T01:20:52.639Z,16
2022-09-11T01:21:52.641Z,16
2022-09-11T01:22:52.648Z,16
2022-09-11T01:23:52.640Z,15
2022-09-11T01:24:52.685Z,15
2022-09-11T01:25:52.629Z,15
2022-09-11T01:26:52.642Z,16
2022-09-11T01:27:52.646Z,16
2022-09-11T01:28:52.647Z,16
2022-09-11T01:29:52.660Z,14
2022-09-11T01:30:52.636Z,17
2022-09-11T01:31:52.652Z,16
2022-09-11T01:32:52.669Z,15
2022-09-11T01:33:52.671Z,15
2022-09-11T01:34:52.653Z,15
2022-09-11T01:35:52.643Z,15
2022-09-11T01:36:52.635Z,15
2022-09-11T01:37:52.667Z,15
2022-09-11T01:38:52.651Z,15
2022-09-11T01:39:52.716Z,15
2022-09-11T01:40:52.641Z,16
2022-09-11T01:41:52.642Z,15
2022-09-11T01:43:52.654Z,16
2022-09-11T01:44:52.719Z,16
2022-09-11T01:45:52.715Z,16
2022-09-11T01:46:52.669Z,15
2022-09-11T01:47:52.670Z,15
2022-09-11T01:48:52.651Z,16
2022-09-11T01:49:52.664Z,15
2022-09-11T01:50:52.650Z,16
2022-09-11T01:51:52.655Z,16
2022-09-11T01:52:52.653Z,15
2022-09-11T01:53:52.693Z,16
2022-09-11T01:54:52.680Z,16
2022-09-11T01:55:52.647Z,16
2022-09-11T01:56:52.655Z,18
2022-09-11T01:57:52.654Z,17
2022-09-11T01:58:52.651Z,17
2022-09-11T01:59:52.664Z,17
2022-09-11T02:00:52.723Z,17
2022-09-11T02:01:52.715Z,17
2022-09-11T02:02:52.659Z,18
2022-09-11T02:03:52.649Z,17
2022-09-11T02:04:52.681Z,18
2022-09-11T02:05:52.653Z,17
2022-09-11T02:06:52.683Z,18
2022-09-11T02:07:52.638Z,17
2022-09-11T02:08:52.647Z,17
2022-09-11T02:09:52.664Z,17
2022-09-11T02:10:52.658Z,17
2022-09-11T02:11:52.642Z,18
2022-09-11T02:12:52.653Z,19
2022-09-11T02:13:52.656Z,18
2022-09-11T02:14:52.659Z,19
2022-09-11T02:15:52.665Z,18
2022-09-11T02:16:52.663Z,18
2022-09-11T02:17:52.663Z,18
2022-09-11T02:18:52.709Z,18
2022-09-11T02:19:52.651Z,17
2022-09-11T02:20:52.640Z,18
2022-09-11T02:21:52.674Z,18
2022-09-11T02:22:52.650Z,18
2022-09-11T02:23:52.675Z,19
2022-09-11T02:24:52.675Z,19
2022-09-11T02:25:52.663Z,19
2022-09-11T02:26:52.656Z,19
2022-09-11T02:27:52.654Z,19
2022-09-11T02:28:52.655Z,20
2022-09-11T02:29:52.681Z,20
2022-09-11T02:30:52.653Z,19
2022-09-11T02:31:52.656Z,19
2022-09-11T02:32:52.680Z,20
2022-09-11T02:33:52.675Z,19
2022-09-11T02:34:52.683Z,20
2022-09-11T02:35:52.675Z,20
2022-09-11T02:36:52.668Z,20
2022-09-11T02:37:52.664Z,20
2022-09-11T02:38:52.668Z,20
2022-09-11T02:39:52.723Z,20
2022-09-11T02:40:52.678Z,19
2022-09-11T02:41:52.678Z,20
2022-09-11T02:42:52.717Z,20
2022-09-11T02:43:52.663Z,21
2022-09-11T02:44:52.670Z,21
2022-09-11T02:45:52.704Z,21
2022-09-11T02:46:52.664Z,21
2022-09-11T02:47:52.682Z,22
2022-09-11T02:48:52.674Z,22
2022-09-11T02:49:52.676Z,21
2022-09-11T02:50:52.647Z,21
2022-09-11T02:51:52.673Z,21
2022-09-11T02:52:52.664Z,21
2022-09-11T02:53:52.660Z,22
2022-09-11T02:54:52.679Z,21
2022-09-11T02:55:52.664Z,21
2022-09-11T02:56:52.662Z,22
2022-09-11T02:57:52.666Z,22
2022-09-11T02:58:52.658Z,23
2022-09-11T02:59:52.677Z,22
2022-09-11T03:00:52.728Z,22
2022-09-11T03:01:52.704Z,22
2022-09-11T03:02:52.681Z,22
2022-09-11T03:03:52.666Z,21
2022-09-11T03:04:52.680Z,21
2022-09-11T03:05:52.653Z,22
2022-09-11T03:06:52.702Z,21
2022-09-11T03:07:52.670Z,21
2022-09-11T03:08:52.667Z,20
2022-09-11T03:09:52.698Z,22
2022-09-11T03:10:52.664Z,21
2022-09-11T03:11:53.084Z,20
2022-09-11T03:12:52.666Z,22
2022-09-11T03:13:52.657Z,23
2022-09-11T03:14:52.691Z,23
2022-09-11T03:15:52.680Z,22
2022-09-11T03:16:52.673Z,25
2022-09-11T03:17:52.656Z,25
2022-09-11T03:18:52.658Z,24
2022-09-11T03:19:52.671Z,25
2022-09-11T03:20:52.664Z,24
2022-09-11T03:21:52.674Z,25
2022-09-11T03:22:52.665Z,25
2022-09-11T03:23:52.651Z,23
2022-09-11T03:24:52.683Z,25
2022-09-11T03:25:52.663Z,26
2022-09-11T03:26:52.664Z,25
2022-09-11T03:27:52.661Z,26
2022-09-11T03:28:52.679Z,26
2022-09-11T03:29:52.779Z,27
2022-09-11T03:30:52.682Z,26
2022-09-11T03:31:52.688Z,26
2022-09-11T03:32:52.657Z,26
2022-09-11T03:33:52.694Z,27
2022-09-11T03:34:52.713Z,26
2022-09-11T03:35:52.667Z,27
2022-09-11T03:36:52.657Z,26
2022-09-11T03:37:52.693Z,26
2022-09-11T03:38:52.665Z,26
2022-09-11T03:39:52.737Z,26
2022-09-11T03:40:52.671Z,26
2022-09-11T03:41:52.669Z,26
2022-09-11T03:42:52.664Z,26
2022-09-11T03:43:52.671Z,27
2022-09-11T03:44:52.696Z,27
2022-09-11T03:45:52.854Z,28
2022-09-11T03:46:52.676Z,26
2022-09-11T03:47:52.691Z,28
2022-09-11T03:48:52.666Z,28
2022-09-11T03:49:52.672Z,29
2022-09-11T03:50:52.761Z,28
2022-09-11T03:51:52.667Z,29
2022-09-11T03:52:52.664Z,30
2022-09-11T03:53:52.668Z,30
2022-09-11T03:54:52.674Z,29
2022-09-11T03:55:52.664Z,30
2022-09-11T03:56:52.667Z,29
2022-09-11T03:57:52.713Z,30
2022-09-11T03:58:52.678Z,31
2022-09-11T03:59:52.676Z,32
2022-09-11T04:00:52.715Z,31
2022-09-11T04:01:52.732Z,30
2022-09-11T04:02:52.757Z,31
2022-09-11T04:03:52.677Z,31
2022-09-11T04:04:52.681Z,31
2022-09-11T04:05:52.664Z,30
2022-09-11T04:06:52.672Z,30
2022-09-11T04:07:52.673Z,31
2022-09-11T04:08:52.700Z,31
2022-09-11T04:09:52.680Z,31
2022-09-11T04:10:52.673Z,32
2022-09-11T04:11:52.683Z,31
2022-09-11T04:12:52.677Z,31
2022-09-11T04:13:52.673Z,32
2022-09-11T04:14:52.673Z,32
2022-09-11T04:15:52.679Z,30
2022-09-11T04:16:52.682Z,31
2022-09-11T04:17:52.689Z,32
2022-09-11T04:18:52.678Z,32
2022-09-11T04:19:52.699Z,32
2022-09-11T04:20:52.677Z,32
2022-09-11T04:21:52.691Z,32
2022-09-11T04:22:52.673Z,32
2022-09-11T04:23:52.677Z,31
2022-09-11T04:24:52.691Z,32
2022-09-11T04:25:52.679Z,33
2022-09-11T04:26:54.447Z,32
2022-09-11T04:27:52.672Z,31
2022-09-11T04:28:52.690Z,32
2022-09-11T04:29:52.707Z,32
2022-09-11T04:30:52.684Z,32
2022-09-11T04:31:52.721Z,33
2022-09-11T04:32:52.685Z,32
2022-09-11T04:33:56.970Z,32
2022-09-11T04:34:52.692Z,32
2022-09-11T04:35:52.680Z,31
2022-09-11T04:36:52.689Z,34
2022-09-11T04:37:52.686Z,33
2022-09-11T04:38:52.668Z,33
2022-09-11T04:39:52.776Z,33
2022-09-11T04:40:52.690Z,33
2022-09-11T04:41:52.686Z,34
2022-09-11T04:42:52.677Z,33
2022-09-11T04:43:52.716Z,34
2022-09-11T04:44:52.677Z,33
2022-09-11T04:45:52.770Z,34
2022-09-11T04:46:52.681Z,34
2022-09-11T04:47:52.699Z,35
2022-09-11T04:48:52.678Z,34
2022-09-11T04:49:52.688Z,34
2022-09-11T04:50:52.682Z,34
2022-09-11T04:51:52.694Z,34
2022-09-11T04:52:52.691Z,34
2022-09-11T04:53:52.696Z,35
2022-09-11T04:54:52.670Z,36
2022-09-11T04:55:52.685Z,34
2022-09-11T04:56:52.671Z,35
2022-09-11T04:57:52.686Z,33
2022-09-11T04:58:52.683Z,35
2022-09-11T04:59:52.700Z,36
2022-09-11T05:00:52.812Z,35
2022-09-11T05:01:52.746Z,36
2022-09-11T05:02:52.689Z,35
2022-09-11T05:03:52.686Z,36
2022-09-11T05:04:52.677Z,35
2022-09-11T05:05:52.755Z,36
2022-09-11T05:06:52.680Z,36
2022-09-11T05:07:52.680Z,36
2022-09-11T05:08:52.692Z,37
2022-09-11T05:09:52.692Z,36
2022-09-11T05:10:52.725Z,36
2022-09-11T05:11:52.680Z,36
2022-09-11T05:12:52.689Z,36
2022-09-11T05:13:52.678Z,37
2022-09-11T05:14:52.683Z,38
2022-09-11T05:15:52.680Z,37
2022-09-11T05:16:52.688Z,36
2022-09-11T05:17:52.697Z,37
2022-09-11T05:18:52.673Z,38
2022-09-11T05:19:52.717Z,36
2022-09-11T05:20:52.696Z,37
2022-09-11T05:21:52.697Z,38
2022-09-11T05:22:52.689Z,36
2022-09-11T05:23:52.697Z,38
2022-09-11T05:24:52.705Z,37
2022-09-11T05:25:52.700Z,37
2022-09-11T05:26:52.695Z,37
2022-09-11T05:27:52.687Z,37
2022-09-11T05:28:52.689Z,36
2022-09-11T05:29:52.700Z,36
2022-09-11T05:30:52.696Z,36
2022-09-11T05:31:52.704Z,36
2022-09-11T05:32:52.718Z,37
2022-09-11T05:33:52.728Z,38
2022-09-11T05:34:52.711Z,38
2022-09-11T05:35:52.685Z,37
2022-09-11T05:36:52.677Z,37
2022-09-11T05:37:52.687Z,38
2022-09-11T05:38:52.704Z,38
2022-09-11T05:39:52.723Z,38
2022-09-11T05:40:52.800Z,37
2022-09-11T05:41:52.707Z,35
2022-09-11T05:42:52.680Z,36
2022-09-11T05:43:52.693Z,37
2022-09-11T05:44:52.702Z,37
2022-09-11T05:45:52.717Z,36
2022-09-11T05:46:52.676Z,38
2022-09-11T05:47:55.835Z,37
2022-09-11T05:48:52.703Z,39
2022-09-11T05:49:52.695Z,40
2022-09-11T05:50:52.692Z,37
2022-09-11T05:51:52.713Z,37
2022-09-11T05:52:52.697Z,38
2022-09-11T05:53:52.703Z,38
2022-09-11T05:54:52.690Z,37
2022-09-11T05:55:52.709Z,38
2022-09-11T05:56:52.694Z,39
2022-09-11T05:57:52.690Z,38
2022-09-11T05:58:52.763Z,38
2022-09-11T05:59:52.700Z,38
2022-09-11T06:00:52.767Z,39
2022-09-11T06:01:52.756Z,38
2022-09-11T06:02:52.698Z,36
2022-09-11T06:03:52.757Z,35
2022-09-11T06:04:52.697Z,38
2022-09-11T06:05:52.709Z,37
2022-09-11T06:06:52.681Z,36
2022-09-11T06:07:52.695Z,34
2022-09-11T06:08:52.701Z,35
2022-09-11T06:09:52.685Z,35
2022-09-11T06:10:52.734Z,33
2022-09-11T06:11:52.694Z,33
2022-09-11T06:12:52.724Z,35
2022-09-11T06:13:52.695Z,35
2022-09-11T06:14:52.695Z,38
2022-09-11T06:15:52.713Z,37
2022-09-11T06:16:52.743Z,36
2022-09-11T06:17:52.739Z,35
2022-09-11T06:18:52.709Z,36
2022-09-11T06:19:52.696Z,36
2022-09-11T06:20:52.719Z,37
2022-09-11T06:21:52.703Z,37
2022-09-11T06:22:52.725Z,36
2022-09-11T06:23:52.711Z,36
2022-09-11T06:24:52.687Z,35
2022-09-11T06:25:52.734Z,34
2022-09-11T06:26:52.711Z,35
2022-09-11T06:27:52.726Z,34
2022-09-11T06:28:52.698Z,35
2022-09-11T06:29:52.731Z,33
2022-09-11T06:30:52.781Z,34
2022-09-11T06:31:52.704Z,34
2022-09-11T06:32:52.702Z,34
2022-09-11T06:33:52.699Z,33
2022-09-11T06:34:52.767Z,34
2022-09-11T06:35:52.729Z,35
2022-09-11T06:36:52.691Z,36
2022-09-11T06:37:52.720Z,35
2022-09-11T06:38:52.715Z,33
2022-09-11T06:39:52.734Z,34
2022-09-11T06:40:52.732Z,33
2022-09-11T06:41:52.717Z,33
2022-09-11T06:42:52.704Z,32
2022-09-11T06:43:52.720Z,33
2022-09-11T06:44:52.721Z,32
2022-09-11T06:45:52.793Z,33
2022-09-11T06:46:52.693Z,33
2022-09-11T06:47:52.722Z,34
2022-09-11T06:48:52.697Z,31
2022-09-11T06:49:52.702Z,33
2022-09-11T06:50:52.715Z,33
2022-09-11T06:51:52.700Z,32
2022-09-11T06:52:52.702Z,32
2022-09-11T06:53:52.715Z,32
2022-09-11T06:54:52.771Z,32
2022-09-11T06:55:52.718Z,33
2022-09-11T06:56:52.721Z,32
2022-09-11T06:57:52.707Z,32
2022-09-11T06:58:52.706Z,31
2022-09-11T06:59:52.751Z,31
2022-09-11T07:00:52.748Z,30
2022-09-11T07:01:52.886Z,31
2022-09-11T07:02:52.703Z,32
2022-09-11T07:03:52.752Z,31
2022-09-11T07:04:52.793Z,33
2022-09-11T07:05:52.731Z,31
2022-09-11T07:06:52.710Z,32
2022-09-11T07:07:52.719Z,31
2022-09-11T07:08:52.775Z,31
2022-09-11T07:09:52.703Z,31
2022-09-11T07:10:52.837Z,32
2022-09-11T07:11:52.705Z,32
2022-09-11T07:12:52.709Z,31
2022-09-11T07:13:52.707Z,31
2022-09-11T07:14:52.870Z,31
2022-09-11T07:15:52.721Z,32
2022-09-11T07:16:52.732Z,31
2022-09-11T07:17:52.764Z,30
2022-09-11T07:18:52.705Z,30
2022-09-11T07:19:52.707Z,32
2022-09-11T07:20:52.707Z,31
2022-09-11T07:21:52.701Z,30
2022-09-11T07:22:52.785Z,30
2022-09-11T07:23:52.715Z,30
2022-09-11T07:24:52.708Z,31
2022-09-11T07:25:52.733Z,30
2022-09-11T07:26:52.702Z,31
2022-09-11T07:27:52.703Z,31
2022-09-11T07:28:52.721Z,31
2022-09-11T07:29:52.703Z,30
2022-09-11T07:30:52.878Z,30
2022-09-11T07:31:52.715Z,32
2022-09-11T07:32:52.731Z,30
2022-09-11T07:33:52.722Z,31
2022-09-11T07:34:52.701Z,32
2022-09-11T07:35:52.723Z,32
2022-09-11T07:36:52.718Z,30
2022-09-11T07:37:52.736Z,31
2022-09-11T07:38:52.712Z,31
2022-09-11T07:39:52.791Z,30
2022-09-11T07:40:52.732Z,33
2022-09-11T07:41:52.755Z,32
2022-09-11T07:42:52.701Z,32
2022-09-11T07:43:52.703Z,32
2022-09-11T07:44:52.726Z,31
2022-09-11T07:45:52.822Z,32
2022-09-11T07:46:52.767Z,32
2022-09-11T07:47:52.754Z,32
2022-09-11T07:48:52.709Z,32
2022-09-11T07:49:52.713Z,31
2022-09-11T07:50:52.725Z,32
2022-09-11T07:51:52.717Z,33
2022-09-11T07:52:52.718Z,32
2022-09-11T07:53:52.717Z,31
2022-09-11T07:54:52.721Z,31
2022-09-11T07:55:52.760Z,31
2022-09-11T07:56:52.718Z,32
2022-09-11T07:57:52.700Z,30
2022-09-11T07:58:52.701Z,32
2022-09-11T07:59:52.723Z,32
2022-09-11T08:00:52.768Z,32
2022-09-11T08:01:52.711Z,33
2022-09-11T08:02:52.724Z,33
2022-09-11T08:03:52.787Z,32
2022-09-11T08:04:52.710Z,31
2022-09-11T08:05:52.746Z,33
2022-09-11T08:06:52.714Z,32
2022-09-11T08:07:52.714Z,32
2022-09-11T08:08:52.727Z,31
2022-09-11T08:10:10.183Z,32
2022-09-11T08:10:52.731Z,30
2022-09-11T08:11:52.714Z,32
2022-09-11T08:13:53.880Z,33
2022-09-11T08:14:52.723Z,32
2022-09-11T08:15:52.748Z,32
2022-09-11T08:16:52.734Z,30
2022-09-11T08:17:52.743Z,32
2022-09-11T08:18:52.732Z,32
2022-09-11T08:19:52.718Z,31
2022-09-11T08:20:52.763Z,32
2022-09-11T08:21:52.716Z,34
2022-09-11T08:22:52.724Z,32
2022-09-11T08:23:52.727Z,32
2022-09-11T08:24:52.715Z,31
2022-09-11T08:25:52.774Z,31
2022-09-11T08:26:52.717Z,33
2022-09-11T08:27:52.729Z,30
2022-09-11T08:28:52.711Z,31
2022-09-11T08:29:52.713Z,30
2022-09-11T08:30:52.926Z,31
2022-09-11T08:31:52.711Z,31
2022-09-11T08:32:52.731Z,32
2022-09-11T08:33:52.787Z,32
2022-09-11T08:34:52.766Z,31
2022-09-11T08:35:52.717Z,32
2022-09-11T08:36:52.720Z,32
2022-09-11T08:37:54.833Z,33
2022-09-11T08:38:52.770Z,33
2022-09-11T08:39:52.753Z,32
2022-09-11T08:40:52.745Z,32
2022-09-11T08:41:52.732Z,33
2022-09-11T08:42:52.751Z,32
2022-09-11T08:43:52.730Z,31
2022-09-11T08:44:52.725Z,31
2022-09-11T08:45:52.811Z,32
2022-09-11T08:46:52.732Z,32
2022-09-11T08:47:52.770Z,32
2022-09-11T08:48:52.730Z,30
2022-09-11T08:49:52.734Z,32
2022-09-11T08:50:52.753Z,32
2022-09-11T08:51:52.733Z,30
2022-09-11T08:52:52.719Z,30
2022-09-11T08:53:52.729Z,30
2022-09-11T08:54:52.734Z,32
2022-09-11T08:55:52.730Z,31
2022-09-11T08:56:52.738Z,30
2022-09-11T08:57:52.734Z,30
2022-09-11T08:58:52.736Z,30
2022-09-11T08:59:52.728Z,31
2022-09-11T09:00:52.772Z,30
2022-09-11T09:01:52.789Z,30
2022-09-11T09:02:52.737Z,29
2022-09-11T09:03:52.728Z,29
2022-09-11T09:04:52.736Z,30
2022-09-11T09:05:52.749Z,29
2022-09-11T09:06:52.780Z,29
2022-09-11T09:07:52.725Z,28
2022-09-11T09:08:52.731Z,28
2022-09-11T09:09:52.728Z,28
2022-09-11T09:10:52.756Z,27
2022-09-11T09:11:52.732Z,25
2022-09-11T09:12:52.729Z,26
2022-09-11T09:13:59.897Z,25
2022-09-11T09:14:52.736Z,26
2022-09-11T09:15:52.777Z,26
2022-09-11T09:16:52.745Z,26
2022-09-11T09:17:52.735Z,26
2022-09-11T09:18:52.760Z,26
2022-09-11T09:19:52.728Z,27
2022-09-11T09:20:52.766Z,26
2022-09-11T09:21:52.748Z,26
2022-09-11T09:22:52.753Z,27
2022-09-11T09:23:52.737Z,27
2022-09-11T09:24:52.731Z,26
2022-09-11T09:25:52.806Z,26
2022-09-11T09:26:52.741Z,27
2022-09-11T09:27:52.748Z,27
2022-09-11T09:28:52.742Z,27
2022-09-11T09:29:52.743Z,27
2022-09-11T09:30:52.907Z,27
2022-09-11T09:31:52.736Z,27
2022-09-11T09:32:52.742Z,26
2022-09-11T09:33:52.736Z,26
2022-09-11T09:34:52.725Z,27
2022-09-11T09:35:52.762Z,26
2022-09-11T09:36:52.748Z,25
2022-09-11T09:37:52.740Z,25
2022-09-11T09:38:52.738Z,26
2022-09-11T09:39:52.804Z,25
2022-09-11T09:40:52.781Z,25
2022-09-11T09:41:52.743Z,26
2022-09-11T09:42:52.751Z,27
2022-09-11T09:43:52.738Z,24
2022-09-11T09:44:52.747Z,25
2022-09-11T09:45:52.839Z,24
2022-09-11T09:46:52.738Z,24
2022-09-11T09:47:52.799Z,24
2022-09-11T09:48:52.763Z,24
2022-09-11T09:49:52.759Z,25
2022-09-11T09:50:52.760Z,24
2022-09-11T09:51:52.751Z,24
2022-09-11T09:52:52.735Z,23
2022-09-11T09:53:52.739Z,23
2022-09-11T09:54:52.750Z,23
2022-09-11T09:55:52.752Z,22
2022-09-11T09:56:52.764Z,21
2022-09-11T09:57:52.745Z,22
2022-09-11T09:58:52.745Z,21
2022-09-11T09:59:52.737Z,21
2022-09-11T10:00:52.757Z,22
2022-09-11T10:01:52.893Z,22
2022-09-11T10:02:52.747Z,21
2022-09-11T10:03:52.754Z,22
2022-09-11T10:04:52.776Z,22
2022-09-11T10:05:52.768Z,21
2022-09-11T10:06:52.740Z,22
2022-09-11T10:07:52.741Z,20
2022-09-11T10:08:52.736Z,20
2022-09-11T10:09:52.804Z,20
2022-09-11T10:10:52.776Z,20
2022-09-11T10:11:52.762Z,21
2022-09-11T10:13:07.537Z,21
2022-09-11T10:14:52.828Z,21
2022-09-11T10:15:52.821Z,20
2022-09-11T10:16:52.744Z,20
2022-09-11T10:17:52.750Z,21
2022-09-11T10:18:52.800Z,21
2022-09-11T10:19:52.738Z,21
2022-09-11T10:20:52.785Z,22
2022-09-11T10:21:52.738Z,21
2022-09-11T10:22:52.752Z,21
2022-09-11T10:23:52.755Z,20
2022-09-11T10:24:52.750Z,21
2022-09-11T10:25:52.789Z,21
2022-09-11T10:26:52.749Z,21
2022-09-11T10:27:52.759Z,21
2022-09-11T10:28:52.747Z,20
2022-09-11T10:29:52.765Z,20
2022-09-11T10:30:52.839Z,21
2022-09-11T10:31:52.761Z,21
2022-09-11T10:32:52.741Z,20
2022-09-11T10:33:52.778Z,21
2022-09-11T10:34:52.760Z,21
2022-09-11T10:35:52.763Z,20
2022-09-11T10:36:52.787Z,21
2022-09-11T10:37:52.759Z,20
2022-09-11T10:38:52.834Z,19
2022-09-11T10:39:52.807Z,21
2022-09-11T10:40:52.759Z,20
2022-09-11T10:41:52.749Z,20
2022-09-11T10:42:52.756Z,19
2022-09-11T10:43:52.768Z,19
2022-09-11T10:44:52.746Z,20
2022-09-11T10:45:52.833Z,19
2022-09-11T10:46:52.755Z,19
2022-09-11T10:47:52.775Z,18
2022-09-11T10:48:52.751Z,20
2022-09-11T10:49:52.778Z,20
2022-09-11T10:50:52.785Z,18
2022-09-11T10:51:52.747Z,18
2022-09-11T10:52:52.759Z,18
2022-09-11T10:53:52.766Z,19
2022-09-11T10:54:52.766Z,17
2022-09-11T10:55:52.765Z,18
2022-09-11T10:56:52.754Z,17
2022-09-11T10:57:52.758Z,18
2022-09-11T10:58:54.908Z,17
2022-09-11T10:59:52.815Z,17
2022-09-11T11:00:52.799Z,17
2022-09-11T11:01:52.896Z,16
2022-09-11T11:02:52.809Z,16
2022-09-11T11:03:52.781Z,16
2022-09-11T11:04:52.768Z,16
2022-09-11T11:05:52.794Z,16
2022-09-11T11:06:52.752Z,16
2022-09-11T11:07:52.779Z,15
2022-09-11T11:08:52.762Z,16
2022-09-11T11:09:52.764Z,15
2022-09-11T11:10:52.774Z,15
2022-09-11T11:11:52.761Z,14
2022-09-11T11:12:52.761Z,15
2022-09-11T11:13:52.763Z,16
2022-09-11T11:14:52.753Z,16
2022-09-11T11:15:52.838Z,15
2022-09-11T11:16:52.756Z,15
2022-09-11T11:17:52.769Z,15
2022-09-11T11:18:52.758Z,15
2022-09-11T11:19:52.817Z,14
2022-09-11T11:20:52.782Z,15
2022-09-11T11:21:52.772Z,14
2022-09-11T11:22:52.757Z,14
2022-09-11T11:23:52.759Z,14
2022-09-11T11:24:52.771Z,15
2022-09-11T11:25:52.795Z,14
2022-09-11T11:26:52.828Z,15
2022-09-11T11:27:52.758Z,14
2022-09-11T11:28:52.767Z,14
2022-09-11T11:29:52.753Z,13
2022-09-11T11:30:52.834Z,13
2022-09-11T11:31:52.789Z,12
2022-09-11T11:32:52.766Z,12
2022-09-11T11:33:52.795Z,12
2022-09-11T11:34:52.770Z,13
2022-09-11T11:35:52.790Z,13
2022-09-11T11:36:52.768Z,13
2022-09-11T11:37:52.762Z,13
2022-09-11T11:38:52.782Z,13
2022-09-11T11:39:52.819Z,14
2022-09-11T11:40:52.791Z,13
2022-09-11T11:41:52.759Z,13
2022-09-11T11:42:56.070Z,12
2022-09-11T11:43:52.768Z,13
2022-09-11T11:44:52.780Z,13
2022-09-11T11:45:52.822Z,12
2022-09-11T11:46:52.765Z,11
2022-09-11T11:47:52.767Z,11
2022-09-11T11:48:52.860Z,11
2022-09-11T11:49:52.774Z,11
2022-09-11T11:50:52.785Z,12
2022-09-11T11:51:52.768Z,11
2022-09-11T11:52:52.770Z,11
2022-09-11T11:53:52.808Z,11
2022-09-11T11:54:52.781Z,12
2022-09-11T11:55:52.789Z,13
2022-09-11T11:56:52.794Z,13
2022-09-11T11:57:52.765Z,13
2022-09-11T11:58:52.768Z,13
2022-09-11T11:59:52.789Z,14
2022-09-11T12:00:55.339Z,15
2022-09-11T12:01:52.794Z,13
2022-09-11T12:02:52.779Z,14
2022-09-11T12:03:52.841Z,15
2022-09-11T12:04:52.768Z,14
2022-09-11T12:05:52.804Z,15
2022-09-11T12:06:52.821Z,14
2022-09-11T12:07:52.810Z,13
2022-09-11T12:08:52.771Z,13
2022-09-11T12:09:52.803Z,14
2022-09-11T12:10:52.823Z,13
2022-09-11T12:11:52.769Z,13
2022-09-11T12:12:52.771Z,13
2022-09-11T12:13:52.789Z,13
2022-09-11T12:14:52.796Z,13
2022-09-11T12:15:52.847Z,13
2022-09-11T12:16:52.789Z,13
2022-09-11T12:17:52.816Z,13
2022-09-11T12:18:52.788Z,14
2022-09-11T12:19:52.770Z,13
2022-09-11T12:20:52.797Z,13
2022-09-11T12:21:52.777Z,13
2022-09-11T12:22:52.816Z,13
2022-09-11T12:23:52.785Z,13
2022-09-11T12:24:52.783Z,13
2022-09-11T12:25:52.909Z,13
2022-09-11T12:26:52.772Z,14
2022-09-11T12:27:52.767Z,14
2022-09-11T12:28:52.779Z,14
2022-09-11T12:29:52.805Z,14
2022-09-11T12:30:52.819Z,13
2022-09-11T12:31:52.779Z,13
2022-09-11T12:32:52.780Z,13
2022-09-11T12:33:52.775Z,14
2022-09-11T12:34:52.785Z,14
2022-09-11T12:35:52.797Z,13
2022-09-11T12:36:52.786Z,13
2022-09-11T12:37:54.209Z,14
2022-09-11T12:38:52.773Z,13
2022-09-11T12:39:52.842Z,12
2022-09-11T12:40:52.838Z,11
2022-09-11T12:41:52.783Z,10
2022-09-11T12:42:52.777Z,10
2022-09-11T12:43:52.817Z,11
2022-09-11T12:44:52.797Z,10
2022-09-11T12:45:52.945Z,11
2022-09-11T12:46:52.781Z,12
2022-09-11T12:47:52.779Z,12
2022-09-11T12:49:17.982Z,14
2022-09-11T12:49:52.790Z,13
2022-09-11T12:50:52.860Z,14
2022-09-11T12:51:52.789Z,14
2022-09-11T12:52:52.784Z,14
2022-09-11T12:53:52.778Z,14
2022-09-11T12:54:52.792Z,13
2022-09-11T12:55:52.802Z,13
2022-09-11T12:56:52.781Z,12
2022-09-11T12:57:52.787Z,12
2022-09-11T12:58:52.785Z,11
2022-09-11T12:59:52.786Z,11
2022-09-11T13:00:52.807Z,11
2022-09-11T13:01:52.928Z,12
2022-09-11T13:02:52.782Z,10
2022-09-11T13:03:52.783Z,10
2022-09-11T13:04:52.781Z,11
2022-09-11T13:05:52.791Z,10
2022-09-11T13:06:52.776Z,10
2022-09-11T13:07:52.777Z,9
2022-09-11T13:08:52.793Z,9
2022-09-11T13:09:52.790Z,9
2022-09-11T13:10:52.822Z,9
2022-09-11T13:11:52.822Z,9
2022-09-11T13:12:52.840Z,10
2022-09-11T13:13:52.800Z,10
2022-09-11T13:14:52.802Z,9
2022-09-11T13:15:52.851Z,9
2022-09-11T13:16:52.802Z,9
2022-09-11T13:17:52.800Z,8
2022-09-11T13:18:52.796Z,10
2022-09-11T13:19:52.788Z,9
2022-09-11T13:20:52.824Z,9
2022-09-11T13:21:52.803Z,10
2022-09-11T13:22:58.153Z,9
2022-09-11T13:23:52.788Z,10
2022-09-11T13:24:52.796Z,11
2022-09-11T13:25:52.818Z,11
2022-09-11T13:26:52.801Z,12
2022-09-11T13:27:52.805Z,12
2022-09-11T13:28:52.799Z,12
2022-09-11T13:29:52.844Z,12
2022-09-11T13:30:52.881Z,12
2022-09-11T13:31:52.799Z,12
2022-09-11T13:32:52.794Z,12
2022-09-11T13:33:52.795Z,12
2022-09-11T13:34:52.800Z,12
2022-09-11T13:35:52.809Z,12
2022-09-11T13:36:56.433Z,11
2022-09-11T13:37:52.814Z,11
2022-09-11T13:38:52.809Z,11
2022-09-11T13:39:52.855Z,12
2022-09-11T13:40:52.819Z,12
2022-09-11T13:41:52.884Z,10
2022-09-11T13:42:52.826Z,12
2022-09-11T13:43:57.550Z,11
2022-09-11T13:44:52.808Z,12
2022-09-11T13:45:52.873Z,11
2022-09-11T13:46:52.792Z,11
2022-09-11T13:47:52.831Z,12
2022-09-11T13:48:52.871Z,11
2022-09-11T13:49:52.799Z,10
2022-09-11T13:50:52.812Z,11
2022-09-11T13:51:52.815Z,12
2022-09-11T13:52:52.811Z,11
2022-09-11T13:53:52.799Z,11
2022-09-11T13:54:52.821Z,12
2022-09-11T13:55:52.826Z,11
2022-09-11T13:56:52.804Z,11
2022-09-11T13:57:52.795Z,11
2022-09-11T13:58:53.685Z,10
2022-09-11T13:59:52.812Z,11
2022-09-11T14:00:52.823Z,11
2022-09-11T14:01:52.823Z,10
2022-09-11T14:02:52.876Z,11
2022-09-11T14:03:52.827Z,9
2022-09-11T14:04:52.805Z,10
2022-09-11T14:05:52.888Z,10
2022-09-11T14:06:52.809Z,10
2022-09-11T14:07:53.835Z,10
2022-09-11T14:08:52.823Z,10
2022-09-11T14:09:52.872Z,10
2022-09-11T14:10:53.139Z,10
2022-09-11T14:11:53.044Z,10
2022-09-11T14:12:52.835Z,9
2022-09-11T14:13:52.838Z,10
2022-09-11T14:14:52.822Z,11
2022-09-11T14:15:52.863Z,9
2022-09-11T14:16:52.812Z,10
2022-09-11T14:17:52.849Z,9
2022-09-11T14:18:52.833Z,9
2022-09-11T14:19:52.811Z,9